sensor_id;sensor_type;location;lat;lon;timestamp;temperature;humidity
75321;DHT22;68337;52.196;5.660;2023-04-01T00:00:22;10.10;99.90
75321;DHT22;68337;52.196;5.660;2023-04-01T00:02:47;10.10;99.90
75321;DHT22;68337;52.196;5.660;2023-04-01T00:05:13;10.10;99.90
75321;DHT22;68337;52.196;5.660;2023-04-01T00:07:40;10.10;99.90
75321;DHT22;68337;52.196;5.660;2023-04-01T00:10:08;10.20;99.90
75321;DHT22;68337;52.196;5.660;2023-04-01T00:12:35;10.10;99.90
75321;DHT22;68337;52.196;5.660;2023-04-01T00:15:03;10.10;99.90
75321;DHT22;68337;52.196;5.660;2023-04-01T00:17:28;10.20;99.90
75321;DHT22;68337;52.196;5.660;2023-04-01T00:19:55;10.20;99.90
75321;DHT22;68337;52.196;5.660;2023-04-01T00:22:22;10.10;99.90
75321;DHT22;68337;52.196;5.660;2023-04-01T00:24:47;10.20;99.90
75321;DHT22;68337;52.196;5.660;2023-04-01T00:27:13;10.20;99.90
75321;DHT22;68337;52.196;5.660;2023-04-01T00:29:42;10.20;99.90
75321;DHT22;68337;52.196;5.660;2023-04-01T00:32:08;10.20;99.90
75321;DHT22;68337;52.196;5.660;2023-04-01T00:34:34;10.20;99.90
75321;DHT22;68337;52.196;5.660;2023-04-01T00:37:00;10.10;99.90
75321;DHT22;68337;52.196;5.660;2023-04-01T00:39:29;10.20;99.90
75321;DHT22;68337;52.196;5.660;2023-04-01T00:41:55;10.20;99.90
75321;DHT22;68337;52.196;5.660;2023-04-01T00:44:33;10.20;99.90
75321;DHT22;68337;52.196;5.660;2023-04-01T00:46:59;10.20;99.90
75321;DHT22;68337;52.196;5.660;2023-04-01T00:49:42;10.20;99.90
75321;DHT22;68337;52.196;5.660;2023-04-01T00:52:12;10.20;99.90
75321;DHT22;68337;52.196;5.660;2023-04-01T00:54:41;10.20;99.90
75321;DHT22;68337;52.196;5.660;2023-04-01T00:57:12;10.20;99.90
75321;DHT22;68337;52.196;5.660;2023-04-01T00:59:43;10.20;99.90
75321;DHT22;68337;52.196;5.660;2023-04-01T01:02:11;10.10;99.90
75321;DHT22;68337;52.196;5.660;2023-04-01T01:04:37;10.10;99.90
75321;DHT22;68337;52.196;5.660;2023-04-01T01:10:24;10.20;99.90
75321;DHT22;68337;52.196;5.660;2023-04-01T01:13:10;10.10;99.90
75321;DHT22;68337;52.196;5.660;2023-04-01T01:16:03;10.10;99.90
75321;DHT22;68337;52.196;5.660;2023-04-01T01:24:35;10.20;99.90
75321;DHT22;68337;52.196;5.660;2023-04-01T01:27:17;10.20;99.90
75321;DHT22;68337;52.196;5.660;2023-04-01T01:35:31;10.20;99.90
75321;DHT22;68337;52.196;5.660;2023-04-01T01:38:02;10.20;99.90
75321;DHT22;68337;52.196;5.660;2023-04-01T01:40:30;10.20;99.90
75321;DHT22;68337;52.196;5.660;2023-04-01T01:43:01;10.10;99.90
75321;DHT22;68337;52.196;5.660;2023-04-01T01:45:30;10.10;99.90
75321;DHT22;68337;52.196;5.660;2023-04-01T01:47:58;10.10;99.90
75321;DHT22;68337;52.196;5.660;2023-04-01T01:50:26;10.10;99.90
75321;DHT22;68337;52.196;5.660;2023-04-01T01:53:06;10.10;99.90
75321;DHT22;68337;52.196;5.660;2023-04-01T01:55:44;10.10;99.90
75321;DHT22;68337;52.196;5.660;2023-04-01T02:00:51;10.00;99.90
75321;DHT22;68337;52.196;5.660;2023-04-01T02:03:20;10.10;99.90
75321;DHT22;68337;52.196;5.660;2023-04-01T02:05:47;10.00;99.90
75321;DHT22;68337;52.196;5.660;2023-04-01T02:08:16;10.10;99.90
75321;DHT22;68337;52.196;5.660;2023-04-01T02:10:49;10.10;99.90
75321;DHT22;68337;52.196;5.660;2023-04-01T02:13:34;10.00;99.90
75321;DHT22;68337;52.196;5.660;2023-04-01T02:16:06;10.00;99.90
75321;DHT22;68337;52.196;5.660;2023-04-01T02:18:35;10.00;99.90
75321;DHT22;68337;52.196;5.660;2023-04-01T02:21:03;9.90;99.90
75321;DHT22;68337;52.196;5.660;2023-04-01T02:23:31;9.90;99.90
75321;DHT22;68337;52.196;5.660;2023-04-01T02:25:59;9.90;99.90
75321;DHT22;68337;52.196;5.660;2023-04-01T02:28:25;9.90;99.90
75321;DHT22;68337;52.196;5.660;2023-04-01T02:30:52;9.90;99.90
75321;DHT22;68337;52.196;5.660;2023-04-01T02:33:19;9.90;99.90
75321;DHT22;68337;52.196;5.660;2023-04-01T02:35:45;9.90;99.90
75321;DHT22;68337;52.196;5.660;2023-04-01T02:38:11;9.90;99.90
75321;DHT22;68337;52.196;5.660;2023-04-01T02:40:51;9.90;99.90
75321;DHT22;68337;52.196;5.660;2023-04-01T02:43:17;9.90;99.90
75321;DHT22;68337;52.196;5.660;2023-04-01T02:45:44;9.80;99.90
75321;DHT22;68337;52.196;5.660;2023-04-01T02:48:10;9.80;99.90
75321;DHT22;68337;52.196;5.660;2023-04-01T02:50:36;9.80;99.90
75321;DHT22;68337;52.196;5.660;2023-04-01T02:53:02;9.80;99.90
75321;DHT22;68337;52.196;5.660;2023-04-01T02:55:29;9.90;99.90
75321;DHT22;68337;52.196;5.660;2023-04-01T02:57:55;9.90;99.90
75321;DHT22;68337;52.196;5.660;2023-04-01T03:00:21;9.90;99.90
75321;DHT22;68337;52.196;5.660;2023-04-01T03:02:47;9.90;99.90
75321;DHT22;68337;52.196;5.660;2023-04-01T03:05:13;9.90;99.90
75321;DHT22;68337;52.196;5.660;2023-04-01T03:07:38;9.90;99.90
75321;DHT22;68337;52.196;5.660;2023-04-01T03:10:06;9.80;99.90
75321;DHT22;68337;52.196;5.660;2023-04-01T03:12:31;9.80;99.90
75321;DHT22;68337;52.196;5.660;2023-04-01T03:14:57;9.80;99.90
75321;DHT22;68337;52.196;5.660;2023-04-01T03:17:23;9.70;99.90
75321;DHT22;68337;52.196;5.660;2023-04-01T03:19:48;9.70;99.90
75321;DHT22;68337;52.196;5.660;2023-04-01T03:22:14;9.80;99.90
75321;DHT22;68337;52.196;5.660;2023-04-01T03:24:40;9.70;99.90
75321;DHT22;68337;52.196;5.660;2023-04-01T03:27:06;9.70;99.90
75321;DHT22;68337;52.196;5.660;2023-04-01T03:29:31;9.60;99.90
75321;DHT22;68337;52.196;5.660;2023-04-01T03:31:57;9.60;99.90
75321;DHT22;68337;52.196;5.660;2023-04-01T03:34:25;9.70;99.90
75321;DHT22;68337;52.196;5.660;2023-04-01T03:36:51;9.60;99.90
75321;DHT22;68337;52.196;5.660;2023-04-01T03:39:17;9.60;99.90
75321;DHT22;68337;52.196;5.660;2023-04-01T03:41:46;9.60;99.90
75321;DHT22;68337;52.196;5.660;2023-04-01T03:44:12;9.60;99.90
75321;DHT22;68337;52.196;5.660;2023-04-01T03:46:38;9.60;99.90
75321;DHT22;68337;52.196;5.660;2023-04-01T03:49:07;9.60;99.90
75321;DHT22;68337;52.196;5.660;2023-04-01T03:51:43;9.60;99.90
75321;DHT22;68337;52.196;5.660;2023-04-01T03:54:09;9.60;99.90
75321;DHT22;68337;52.196;5.660;2023-04-01T03:56:36;9.60;99.90
75321;DHT22;68337;52.196;5.660;2023-04-01T03:59:03;9.60;99.90
75321;DHT22;68337;52.196;5.660;2023-04-01T04:01:29;9.60;99.90
75321;DHT22;68337;52.196;5.660;2023-04-01T04:03:56;9.60;99.90
75321;DHT22;68337;52.196;5.660;2023-04-01T04:06:23;9.50;99.90
75321;DHT22;68337;52.196;5.660;2023-04-01T04:08:49;9.60;99.90
75321;DHT22;68337;52.196;5.660;2023-04-01T04:11:15;9.50;99.90
75321;DHT22;68337;52.196;5.660;2023-04-01T04:13:42;9.60;99.90
75321;DHT22;68337;52.196;5.660;2023-04-01T04:16:08;9.50;99.90
75321;DHT22;68337;52.196;5.660;2023-04-01T04:18:36;9.60;99.90
75321;DHT22;68337;52.196;5.660;2023-04-01T04:21:02;9.60;99.90
75321;DHT22;68337;52.196;5.660;2023-04-01T04:23:27;9.60;99.90
75321;DHT22;68337;52.196;5.660;2023-04-01T04:26:04;9.60;99.90
75321;DHT22;68337;52.196;5.660;2023-04-01T04:28:30;9.50;99.90
75321;DHT22;68337;52.196;5.660;2023-04-01T04:30:56;9.60;99.90
75321;DHT22;68337;52.196;5.660;2023-04-01T04:33:23;9.60;99.90
75321;DHT22;68337;52.196;5.660;2023-04-01T04:35:49;9.50;99.90
75321;DHT22;68337;52.196;5.660;2023-04-01T04:38:14;9.60;99.90
75321;DHT22;68337;52.196;5.660;2023-04-01T04:40:41;9.60;99.90
75321;DHT22;68337;52.196;5.660;2023-04-01T04:43:09;9.50;99.90
75321;DHT22;68337;52.196;5.660;2023-04-01T04:45:35;9.50;99.90
75321;DHT22;68337;52.196;5.660;2023-04-01T04:48:01;9.50;99.90
75321;DHT22;68337;52.196;5.660;2023-04-01T04:50:26;9.50;99.90
75321;DHT22;68337;52.196;5.660;2023-04-01T04:52:52;9.50;99.90
75321;DHT22;68337;52.196;5.660;2023-04-01T04:55:18;9.50;99.90
75321;DHT22;68337;52.196;5.660;2023-04-01T04:57:43;9.50;99.90
75321;DHT22;68337;52.196;5.660;2023-04-01T05:00:10;9.50;99.90
75321;DHT22;68337;52.196;5.660;2023-04-01T05:02:36;9.50;99.90
75321;DHT22;68337;52.196;5.660;2023-04-01T05:05:02;9.50;99.90
75321;DHT22;68337;52.196;5.660;2023-04-01T05:07:27;9.40;99.90
75321;DHT22;68337;52.196;5.660;2023-04-01T05:09:53;9.50;99.90
75321;DHT22;68337;52.196;5.660;2023-04-01T05:12:19;9.50;99.90
75321;DHT22;68337;52.196;5.660;2023-04-01T05:14:45;9.50;99.90
75321;DHT22;68337;52.196;5.660;2023-04-01T05:17:12;9.50;99.90
75321;DHT22;68337;52.196;5.660;2023-04-01T05:19:38;9.40;99.90
75321;DHT22;68337;52.196;5.660;2023-04-01T05:22:05;9.50;99.90
75321;DHT22;68337;52.196;5.660;2023-04-01T05:24:31;9.40;99.90
75321;DHT22;68337;52.196;5.660;2023-04-01T05:26:57;9.40;99.90
75321;DHT22;68337;52.196;5.660;2023-04-01T05:29:24;9.50;99.90
75321;DHT22;68337;52.196;5.660;2023-04-01T05:31:50;9.50;99.90
75321;DHT22;68337;52.196;5.660;2023-04-01T05:34:16;9.50;99.90
75321;DHT22;68337;52.196;5.660;2023-04-01T05:36:43;9.50;99.90
75321;DHT22;68337;52.196;5.660;2023-04-01T05:39:09;9.50;99.90
75321;DHT22;68337;52.196;5.660;2023-04-01T05:41:35;9.50;99.90
75321;DHT22;68337;52.196;5.660;2023-04-01T05:44:02;9.50;99.90
75321;DHT22;68337;52.196;5.660;2023-04-01T05:46:28;9.50;99.90
75321;DHT22;68337;52.196;5.660;2023-04-01T05:48:56;9.60;99.90
75321;DHT22;68337;52.196;5.660;2023-04-01T05:51:22;9.50;99.90
75321;DHT22;68337;52.196;5.660;2023-04-01T05:53:48;9.60;99.90
75321;DHT22;68337;52.196;5.660;2023-04-01T05:56:14;9.60;99.90
75321;DHT22;68337;52.196;5.660;2023-04-01T05:58:40;9.60;99.90
75321;DHT22;68337;52.196;5.660;2023-04-01T06:01:10;9.60;99.90
75321;DHT22;68337;52.196;5.660;2023-04-01T06:03:36;9.60;99.90
75321;DHT22;68337;52.196;5.660;2023-04-01T06:06:02;9.60;99.90
75321;DHT22;68337;52.196;5.660;2023-04-01T06:08:30;9.70;99.90
75321;DHT22;68337;52.196;5.660;2023-04-01T06:41:06;10.00;99.90
75321;DHT22;68337;52.196;5.660;2023-04-01T06:46:42;10.10;99.90
75321;DHT22;68337;52.196;5.660;2023-04-01T06:49:31;10.20;99.90
75321;DHT22;68337;52.196;5.660;2023-04-01T06:54:33;10.20;99.90
75321;DHT22;68337;52.196;5.660;2023-04-01T06:57:35;10.30;99.90
75321;DHT22;68337;52.196;5.660;2023-04-01T07:00:18;10.30;99.90
75321;DHT22;68337;52.196;5.660;2023-04-01T07:03:02;10.30;99.90
75321;DHT22;68337;52.196;5.660;2023-04-01T07:05:31;10.40;99.90
75321;DHT22;68337;52.196;5.660;2023-04-01T07:08:00;10.40;99.90
75321;DHT22;68337;52.196;5.660;2023-04-01T07:13:18;10.40;99.90
75321;DHT22;68337;52.196;5.660;2023-04-01T07:15:59;10.50;99.90
75321;DHT22;68337;52.196;5.660;2023-04-01T07:18:37;10.60;99.90
75321;DHT22;68337;52.196;5.660;2023-04-01T07:21:05;10.60;99.90
75321;DHT22;68337;52.196;5.660;2023-04-01T07:23:44;10.60;99.90
75321;DHT22;68337;52.196;5.660;2023-04-01T07:26:22;10.70;99.90
75321;DHT22;68337;52.196;5.660;2023-04-01T07:28:50;10.70;99.90
75321;DHT22;68337;52.196;5.660;2023-04-01T07:31:25;10.70;99.90
75321;DHT22;68337;52.196;5.660;2023-04-01T07:36:47;10.60;99.90
75321;DHT22;68337;52.196;5.660;2023-04-01T07:42:38;10.60;99.90
75321;DHT22;68337;52.196;5.660;2023-04-01T07:45:40;10.60;99.90
75321;DHT22;68337;52.196;5.660;2023-04-01T07:50:43;10.60;99.90
75321;DHT22;68337;52.196;5.660;2023-04-01T07:57:02;10.70;99.90
75321;DHT22;68337;52.196;5.660;2023-04-01T08:01:50;10.70;99.90
75321;DHT22;68337;52.196;5.660;2023-04-01T08:04:42;10.80;99.90
75321;DHT22;68337;52.196;5.660;2023-04-01T08:09:55;10.80;99.90
75321;DHT22;68337;52.196;5.660;2023-04-01T08:15:27;10.80;99.90
75321;DHT22;68337;52.196;5.660;2023-04-01T08:20:27;10.70;99.90
75321;DHT22;68337;52.196;5.660;2023-04-01T08:23:06;10.80;99.90
75321;DHT22;68337;52.196;5.660;2023-04-01T08:25:34;10.90;99.90
75321;DHT22;68337;52.196;5.660;2023-04-01T08:28:19;10.90;99.90
75321;DHT22;68337;52.196;5.660;2023-04-01T08:33:33;10.90;99.90
75321;DHT22;68337;52.196;5.660;2023-04-01T08:36:08;10.90;99.90
75321;DHT22;68337;52.196;5.660;2023-04-01T08:41:14;10.90;99.90
75321;DHT22;68337;52.196;5.660;2023-04-01T08:49:56;10.80;99.90
75321;DHT22;68337;52.196;5.660;2023-04-01T08:52:37;10.90;99.90
75321;DHT22;68337;52.196;5.660;2023-04-01T09:00:33;10.80;99.90
75321;DHT22;68337;52.196;5.660;2023-04-01T09:08:52;11.00;99.90
75321;DHT22;68337;52.196;5.660;2023-04-01T09:20:42;11.40;99.90
75321;DHT22;68337;52.196;5.660;2023-04-01T09:28:20;11.30;99.90
75321;DHT22;68337;52.196;5.660;2023-04-01T09:36:33;11.30;99.90
75321;DHT22;68337;52.196;5.660;2023-04-01T09:39:39;11.40;99.90
75321;DHT22;68337;52.196;5.660;2023-04-01T09:44:37;11.40;99.90
75321;DHT22;68337;52.196;5.660;2023-04-01T09:47:16;11.40;99.90
75321;DHT22;68337;52.196;5.660;2023-04-01T09:52:21;11.40;99.90
75321;DHT22;68337;52.196;5.660;2023-04-01T09:55:03;11.50;99.90
75321;DHT22;68337;52.196;5.660;2023-04-01T09:58:17;11.50;99.90
75321;DHT22;68337;52.196;5.660;2023-04-01T10:15:05;11.80;99.90
75321;DHT22;68337;52.196;5.660;2023-04-01T10:20:46;12.00;99.90
75321;DHT22;68337;52.196;5.660;2023-04-01T10:37:39;11.60;99.90
75321;DHT22;68337;52.196;5.660;2023-04-01T10:40:25;11.60;99.90
75321;DHT22;68337;52.196;5.660;2023-04-01T10:48:17;11.20;99.90
75321;DHT22;68337;52.196;5.660;2023-04-01T10:53:57;11.20;99.90
75321;DHT22;68337;52.196;5.660;2023-04-01T11:22:09;11.50;99.90
75321;DHT22;68337;52.196;5.660;2023-04-01T11:33:20;11.60;99.90
75321;DHT22;68337;52.196;5.660;2023-04-01T11:39:07;11.80;99.90
75321;DHT22;68337;52.196;5.660;2023-04-01T11:42:17;11.70;99.90
75321;DHT22;68337;52.196;5.660;2023-04-01T11:45:23;11.60;99.90
75321;DHT22;68337;52.196;5.660;2023-04-01T11:51:15;11.70;99.90
75321;DHT22;68337;52.196;5.660;2023-04-01T12:02:42;11.90;99.90
75321;DHT22;68337;52.196;5.660;2023-04-01T12:05:23;11.80;99.90
75321;DHT22;68337;52.196;5.660;2023-04-01T12:11:12;11.80;99.90
75321;DHT22;68337;52.196;5.660;2023-04-01T12:16:59;11.80;99.90
75321;DHT22;68337;52.196;5.660;2023-04-01T12:19:43;11.80;99.90
75321;DHT22;68337;52.196;5.660;2023-04-01T12:41:09;11.90;99.90
75321;DHT22;68337;52.196;5.660;2023-04-01T12:43:59;12.00;99.90
75321;DHT22;68337;52.196;5.660;2023-04-01T13:03:43;12.10;99.90
75321;DHT22;68337;52.196;5.660;2023-04-01T13:06:36;12.00;99.90
75321;DHT22;68337;52.196;5.660;2023-04-01T13:09:32;12.00;99.90
75321;DHT22;68337;52.196;5.660;2023-04-01T13:15:24;12.00;99.90
75321;DHT22;68337;52.196;5.660;2023-04-01T13:18:32;12.00;99.90
75321;DHT22;68337;52.196;5.660;2023-04-01T13:23:46;11.80;99.90
75321;DHT22;68337;52.196;5.660;2023-04-01T13:26:18;11.70;99.90
75321;DHT22;68337;52.196;5.660;2023-04-01T13:29:01;11.70;99.90
75321;DHT22;68337;52.196;5.660;2023-04-01T13:31:39;11.60;99.90
75321;DHT22;68337;52.196;5.660;2023-04-01T13:37:02;11.60;99.90
75321;DHT22;68337;52.196;5.660;2023-04-01T13:39:35;11.60;99.90
75321;DHT22;68337;52.196;5.660;2023-04-01T13:56:57;11.60;99.90
75321;DHT22;68337;52.196;5.660;2023-04-01T14:05:50;11.40;99.90
75321;DHT22;68337;52.196;5.660;2023-04-01T14:25:17;11.20;99.90
75321;DHT22;68337;52.196;5.660;2023-04-01T14:31:04;11.40;99.90
75321;DHT22;68337;52.196;5.660;2023-04-01T14:33:33;11.40;99.90
75321;DHT22;68337;52.196;5.660;2023-04-01T14:42:17;11.50;99.90
75321;DHT22;68337;52.196;5.660;2023-04-01T14:47:42;11.60;99.90
75321;DHT22;68337;52.196;5.660;2023-04-01T14:50:26;11.60;99.90
75321;DHT22;68337;52.196;5.660;2023-04-01T14:53:33;11.50;99.90
75321;DHT22;68337;52.196;5.660;2023-04-01T14:56:04;11.60;99.90
75321;DHT22;68337;52.196;5.660;2023-04-01T14:58:50;11.50;99.90
75321;DHT22;68337;52.196;5.660;2023-04-01T15:07:54;11.50;99.90
75321;DHT22;68337;52.196;5.660;2023-04-01T15:16:29;11.30;99.90
75321;DHT22;68337;52.196;5.660;2023-04-01T15:27:11;11.20;99.90
75321;DHT22;68337;52.196;5.660;2023-04-01T15:29:57;11.20;99.90
75321;DHT22;68337;52.196;5.660;2023-04-01T15:37:56;11.20;99.90
75321;DHT22;68337;52.196;5.660;2023-04-01T15:40:30;11.10;99.90
75321;DHT22;68337;52.196;5.660;2023-04-01T15:48:24;11.00;99.90
75321;DHT22;68337;52.196;5.660;2023-04-01T15:54:06;10.90;99.90
75321;DHT22;68337;52.196;5.660;2023-04-01T16:02:35;10.70;99.90
75321;DHT22;68337;52.196;5.660;2023-04-01T16:11:25;10.50;99.90
75321;DHT22;68337;52.196;5.660;2023-04-01T16:14:39;10.50;99.90
75321;DHT22;68337;52.196;5.660;2023-04-01T16:23:39;10.30;99.90
75321;DHT22;68337;52.196;5.660;2023-04-01T16:38:55;10.20;99.90
75321;DHT22;68337;52.196;5.660;2023-04-01T16:41:36;10.10;99.90
75321;DHT22;68337;52.196;5.660;2023-04-01T16:44:17;10.10;99.90
75321;DHT22;68337;52.196;5.660;2023-04-01T16:46:47;10.10;99.90
75321;DHT22;68337;52.196;5.660;2023-04-01T16:49:40;10.00;99.90
75321;DHT22;68337;52.196;5.660;2023-04-01T16:55:00;9.90;99.90
75321;DHT22;68337;52.196;5.660;2023-04-01T16:57:52;9.80;99.90
75321;DHT22;68337;52.196;5.660;2023-04-01T17:00:28;9.80;99.90
75321;DHT22;68337;52.196;5.660;2023-04-01T17:08:22;9.80;99.90
75321;DHT22;68337;52.196;5.660;2023-04-01T17:27:50;9.60;99.90
75321;DHT22;68337;52.196;5.660;2023-04-01T17:35:50;9.50;99.90
75321;DHT22;68337;52.196;5.660;2023-04-01T17:58:20;9.30;99.90
75321;DHT22;68337;52.196;5.660;2023-04-01T18:03:55;9.20;99.90
75321;DHT22;68337;52.196;5.660;2023-04-01T18:06:36;9.20;99.90
75321;DHT22;68337;52.196;5.660;2023-04-01T18:12:09;9.20;99.90
75321;DHT22;68337;52.196;5.660;2023-04-01T18:22:47;9.20;99.90
75321;DHT22;68337;52.196;5.660;2023-04-01T18:25:32;9.10;99.90
75321;DHT22;68337;52.196;5.660;2023-04-01T18:28:14;9.20;99.90
75321;DHT22;68337;52.196;5.660;2023-04-01T18:30:44;9.10;99.90
75321;DHT22;68337;52.196;5.660;2023-04-01T18:33:29;9.10;99.90
75321;DHT22;68337;52.196;5.660;2023-04-01T18:36:13;9.00;99.90
75321;DHT22;68337;52.196;5.660;2023-04-01T18:47:22;9.00;99.90
75321;DHT22;68337;52.196;5.660;2023-04-01T18:52:43;8.90;99.90
75321;DHT22;68337;52.196;5.660;2023-04-01T18:55:32;9.00;99.90
75321;DHT22;68337;52.196;5.660;2023-04-01T18:58:24;9.00;99.90
75321;DHT22;68337;52.196;5.660;2023-04-01T19:04:15;8.90;99.90
75321;DHT22;68337;52.196;5.660;2023-04-01T19:15:49;8.90;99.90
75321;DHT22;68337;52.196;5.660;2023-04-01T19:18:31;8.80;99.90
75321;DHT22;68337;52.196;5.660;2023-04-01T19:23:54;8.70;99.90
75321;DHT22;68337;52.196;5.660;2023-04-01T19:34:46;8.60;99.90
75321;DHT22;68337;52.196;5.660;2023-04-01T19:37:36;8.50;99.90
75321;DHT22;68337;52.196;5.660;2023-04-01T19:43:02;8.40;99.90
75321;DHT22;68337;52.196;5.660;2023-04-01T20:02:55;8.30;99.90
75321;DHT22;68337;52.196;5.660;2023-04-01T20:07:58;8.20;99.90
75321;DHT22;68337;52.196;5.660;2023-04-01T20:11:07;8.20;99.90
75321;DHT22;68337;52.196;5.660;2023-04-01T20:16:10;8.10;99.90
75321;DHT22;68337;52.196;5.660;2023-04-01T20:18:51;8.20;99.90
75321;DHT22;68337;52.196;5.660;2023-04-01T20:21:28;8.10;99.90
75321;DHT22;68337;52.196;5.660;2023-04-01T20:26:38;8.10;99.90
75321;DHT22;68337;52.196;5.660;2023-04-01T20:35:00;7.90;99.90
75321;DHT22;68337;52.196;5.660;2023-04-01T20:40:31;7.70;99.90
75321;DHT22;68337;52.196;5.660;2023-04-01T20:43:47;7.70;99.90
75321;DHT22;68337;52.196;5.660;2023-04-01T21:00:31;7.60;99.90
75321;DHT22;68337;52.196;5.660;2023-04-01T21:03:13;7.60;99.90
75321;DHT22;68337;52.196;5.660;2023-04-01T21:08:58;7.50;99.90
75321;DHT22;68337;52.196;5.660;2023-04-01T21:17:10;7.50;99.90
75321;DHT22;68337;52.196;5.660;2023-04-01T21:25:17;7.40;99.90
75321;DHT22;68337;52.196;5.660;2023-04-01T21:38:40;7.30;99.90
75321;DHT22;68337;52.196;5.660;2023-04-01T21:41:32;7.20;99.90
75321;DHT22;68337;52.196;5.660;2023-04-01T21:44:10;7.10;99.90
75321;DHT22;68337;52.196;5.660;2023-04-01T21:49:27;7.20;99.90
75321;DHT22;68337;52.196;5.660;2023-04-01T22:00:18;7.10;99.90
75321;DHT22;68337;52.196;5.660;2023-04-01T22:11:36;7.00;99.90
75321;DHT22;68337;52.196;5.660;2023-04-01T22:14:21;7.00;99.90
75321;DHT22;68337;52.196;5.660;2023-04-01T22:17:03;7.00;99.90
75321;DHT22;68337;52.196;5.660;2023-04-01T22:22:49;6.90;99.90
75321;DHT22;68337;52.196;5.660;2023-04-01T22:25:28;7.00;99.90
75321;DHT22;68337;52.196;5.660;2023-04-01T22:28:05;7.00;99.90
75321;DHT22;68337;52.196;5.660;2023-04-01T22:30:39;7.00;99.90
75321;DHT22;68337;52.196;5.660;2023-04-01T22:40:45;6.90;99.90
75321;DHT22;68337;52.196;5.660;2023-04-01T22:43:17;6.90;99.90
75321;DHT22;68337;52.196;5.660;2023-04-01T22:46:09;6.80;99.90
75321;DHT22;68337;52.196;5.660;2023-04-01T22:48:54;6.80;99.90
75321;DHT22;68337;52.196;5.660;2023-04-01T22:51:41;6.80;99.90
75321;DHT22;68337;52.196;5.660;2023-04-01T22:54:49;6.80;99.90
75321;DHT22;68337;52.196;5.660;2023-04-01T22:57:37;6.70;99.90
75321;DHT22;68337;52.196;5.660;2023-04-01T23:00:32;6.80;99.90
75321;DHT22;68337;52.196;5.660;2023-04-01T23:05:54;6.70;99.90
75321;DHT22;68337;52.196;5.660;2023-04-01T23:11:18;6.50;99.90
75321;DHT22;68337;52.196;5.660;2023-04-01T23:13:49;6.60;99.90
75321;DHT22;68337;52.196;5.660;2023-04-01T23:16:23;6.60;99.90
75321;DHT22;68337;52.196;5.660;2023-04-01T23:21:45;6.60;99.90
75321;DHT22;68337;52.196;5.660;2023-04-01T23:24:25;6.60;99.90
75321;DHT22;68337;52.196;5.660;2023-04-01T23:30:03;6.50;99.90
75321;DHT22;68337;52.196;5.660;2023-04-01T23:32:29;6.50;99.90
75321;DHT22;68337;52.196;5.660;2023-04-01T23:34:57;6.60;99.90
75321;DHT22;68337;52.196;5.660;2023-04-01T23:37:24;6.50;99.90
75321;DHT22;68337;52.196;5.660;2023-04-01T23:39:53;6.60;99.90
75321;DHT22;68337;52.196;5.660;2023-04-01T23:42:33;6.60;99.90
75321;DHT22;68337;52.196;5.660;2023-04-01T23:45:15;6.50;99.90
75321;DHT22;68337;52.196;5.660;2023-04-01T23:47:43;6.60;99.90
75321;DHT22;68337;52.196;5.660;2023-04-01T23:50:18;6.60;99.90
75321;DHT22;68337;52.196;5.660;2023-04-01T23:53:00;6.60;99.90
75321;DHT22;68337;52.196;5.660;2023-04-01T23:55:30;6.60;99.90
75321;DHT22;68337;52.196;5.660;2023-04-01T23:58:11;6.50;99.90
